2B1 weather

Cape Cod Airport
Marston Mills, Massachusetts, United States

Public forecast

Using degrees Fahrenheit for public forecast. Weather courtesy of forecast.io.

Closest aviation weather report (METAR) to Cape Cod Airport

Closest report is Barnstable Municipal Boardman Polando Field, 5.6 nm (10.3 km) E. Retrieved 2019/12/15 14:56 UTC (32 minutes ago):

KHYA 151456Z 29016G31KT 10SM FEW049 09/M03 A2956 RMK AO2 PK WND 28032/1429 SLP012 T00891033 51037

Closest aviation forecast (TAF) to Cape Cod Airport

Forecast is more than 6 hours old.

Closest forecast is Barnstable Municipal Boardman Polando Field, 5.6 nm (10.3 km) E. Retrieved 2019/12/15 06:42 UTC (9 hours ago):

TAF KHYA 150539Z 1506/1606 23019G32KT P6SM BKN020 FM150700 24019G32KT P6SM BKN050 FM151400 26020G41KT P6SM SCT060 FM151600 26021G39KT P6SM SCT045 FM152200 26020G38KT P6SM SCT100 FM160200 28019G34KT P6SM FEW250